National Weather Service Raw Text Product

Displaying AFOS PIL: TAFALO Received: 2018-01-12 05:29 UTC


320 
FTUS43 KDMX 120529
TAFALO
TAF
KALO 120529Z 1206/1306 33018G26KT 6SM BLSN BKN015
     FM120900 33014KT P6SM SKC
     FM130300 35009KT P6SM BKN090=